Time;durP1;ratioP1;P1;durP2;ratioP2;P2;SDS_P1;SDS_P2;PMS_P1;PMS_P2;Temp;Humidity;BMP_temperature;BMP_pressure;BME280_temperature;BME280_humidity;BME280_pressure;Samples;Min_cycle;Max_cycle;Signal;HPM_P1;HPM_P2
2022/03/27 00:02:09;;;;;;;24.23;13.68;;;;;;;;;;5025392;28;20125;-77
2022/03/27 00:04:35;;;;;;;29.73;14.30;;;;;;;;;;5007321;28;20038;-80
2022/03/27 00:07:01;;;;;;;20.35;13.23;;;;;;;;;;5002952;28;20382;-79
2022/03/27 00:09:27;;;;;;;26.00;13.68;;;;;;;;;;5019557;28;20049;-81
2022/03/27 00:11:53;;;;;;;23.42;13.95;;;;;;;;;;5006648;28;20057;-80
2022/03/27 00:14:19;;;;;;;26.10;13.93;;;;;;;;;;5003411;28;20033;-81
2022/03/27 00:16:45;;;;;;;27.55;14.73;;;;;;;;;;5002359;28;20038;-78
2022/03/27 00:19:11;;;;;;;23.60;14.18;;;;;;;;;;5004392;28;20172;-78
2022/03/27 00:21:38;;;;;;;26.10;14.90;;;;;;;;;;5009271;28;20054;-79
2022/03/27 00:24:05;;;;;;;26.75;15.70;;;;;;;;;;5026143;28;20072;-79
2022/03/27 00:26:31;;;;;;;28.08;15.68;;;;;;;;;;5012470;28;20046;-78
2022/03/27 00:28:57;;;;;;;25.73;15.10;;;;;;;;;;5041230;28;20092;-79
2022/03/27 00:31:23;;;;;;;23.27;13.98;;;;;;;;;;5027021;28;20046;-79
2022/03/27 00:33:49;;;;;;;25.45;14.38;;;;;;;;;;5022130;28;20153;-79
2022/03/27 00:36:15;;;;;;;26.25;13.50;;;;;;;;;;5017859;28;20042;-78
2022/03/27 00:38:41;;;;;;;26.00;15.18;;;;;;;;;;5001991;28;20076;-78
2022/03/27 00:41:08;;;;;;;26.83;15.32;;;;;;;;;;5023441;28;20053;-78
2022/03/27 00:43:34;;;;;;;28.35;15.15;;;;;;;;;;5042005;28;20109;-79
2022/03/27 00:46:00;;;;;;;28.17;15.57;;;;;;;;;;5021232;28;20042;-80
2022/03/27 00:48:26;;;;;;;25.50;15.23;;;;;;;;;;5002846;28;20042;-81
2022/03/27 00:50:53;;;;;;;28.55;15.52;;;;;;;;;;5020506;28;20049;-79
2022/03/27 00:53:19;;;;;;;27.27;14.65;;;;;;;;;;5002416;28;20415;-80
2022/03/27 00:55:45;;;;;;;23.15;14.50;;;;;;;;;;5019709;28;20077;-81
2022/03/27 00:58:11;;;;;;;31.90;15.07;;;;;;;;;;5018921;28;20038;-81
2022/03/27 01:00:43;;;;;;;26.98;15.15;;;;;;;;;;5003054;28;20038;-81
2022/03/27 01:03:12;;;;;;;26.88;15.00;;;;;;;;;;5032312;28;20077;-77
2022/03/27 01:05:38;;;;;;;25.05;15.95;;;;;;;;;;4998488;28;20038;-76
2022/03/27 01:08:07;;;;;;;24.25;15.77;;;;;;;;;;5014655;28;20052;-76
2022/03/27 01:10:34;;;;;;;28.75;16.25;;;;;;;;;;4997890;28;20075;-77
2022/03/27 01:13:01;;;;;;;30.33;17.48;;;;;;;;;;5014673;28;20052;-77
2022/03/27 01:15:46;;;;;;;30.10;17.63;;;;;;;;;;4997776;28;20129;-77
2022/03/27 01:18:14;;;;;;;28.92;17.65;;;;;;;;;;5030473;28;20432;-77
2022/03/27 01:20:40;;;;;;;28.30;17.20;;;;;;;;;;5018351;28;20061;-77
2022/03/27 01:23:10;;;;;;;33.38;18.30;;;;;;;;;;5019180;28;20038;-77
2022/03/27 01:25:36;;;;;;;28.13;17.63;;;;;;;;;;5020007;28;20061;-77
2022/03/27 01:28:03;;;;;;;29.00;17.02;;;;;;;;;;5035175;28;20046;-77
2022/03/27 01:30:29;;;;;;;29.40;17.88;;;;;;;;;;5015637;28;20053;-77
2022/03/27 01:32:55;;;;;;;32.40;18.42;;;;;;;;;;5018763;28;20123;-77
2022/03/27 01:35:21;;;;;;;39.80;20.33;;;;;;;;;;5002561;28;20064;-77
2022/03/27 01:37:47;;;;;;;29.75;18.38;;;;;;;;;;5018595;28;20168;-77
2022/03/27 01:40:13;;;;;;;37.58;20.50;;;;;;;;;;5002085;28;20038;-77
2022/03/27 01:42:39;;;;;;;36.28;20.27;;;;;;;;;;5020461;28;20041;-77
2022/03/27 01:45:06;;;;;;;32.88;20.20;;;;;;;;;;5007372;28;20042;-79
2022/03/27 01:47:32;;;;;;;38.88;21.50;;;;;;;;;;5019515;28;20433;-78
2022/03/27 01:49:58;;;;;;;35.70;20.17;;;;;;;;;;5019543;28;20042;-78
2022/03/27 01:52:24;;;;;;;35.15;19.75;;;;;;;;;;5003636;28;20037;-78
2022/03/27 01:54:50;;;;;;;37.08;19.90;;;;;;;;;;5019020;28;20168;-77
2022/03/27 01:57:16;;;;;;;36.63;20.42;;;;;;;;;;5019092;28;20454;-77
2022/03/27 01:59:42;;;;;;;34.58;18.60;;;;;;;;;;5000904;28;20034;-77
2022/03/27 02:02:08;;;;;;;35.08;19.98;;;;;;;;;;5000849;28;20124;-77
2022/03/27 02:04:34;;;;;;;39.58;21.13;;;;;;;;;;5001169;28;20161;-76
2022/03/27 02:07:03;;;;;;;32.80;20.27;;;;;;;;;;5017500;28;20445;-77
2022/03/27 02:09:29;;;;;;;37.70;20.83;;;;;;;;;;5017402;28;20121;-77
2022/03/27 02:11:55;;;;;;;40.38;21.98;;;;;;;;;;5000949;28;20535;-77
2022/03/27 02:14:21;;;;;;;36.80;21.17;;;;;;;;;;5018544;28;20121;-78
2022/03/27 02:16:47;;;;;;;42.17;22.50;;;;;;;;;;5018313;28;20034;-78
2022/03/27 02:19:13;;;;;;;37.80;21.90;;;;;;;;;;5000538;28;20120;-76
2022/03/27 02:21:40;;;;;;;40.50;23.85;;;;;;;;;;5001595;28;20517;-77
2022/03/27 02:24:06;;;;;;;39.05;21.90;;;;;;;;;;5018793;28;20108;-78
2022/03/27 02:26:32;;;;;;;37.58;22.10;;;;;;;;;;5034655;28;20056;-77
2022/03/27 02:28:58;;;;;;;38.13;22.25;;;;;;;;;;5022180;28;20468;-78
2022/03/27 02:31:24;;;;;;;39.70;22.63;;;;;;;;;;5001217;28;20061;-77
2022/03/27 02:33:50;;;;;;;38.55;22.92;;;;;;;;;;5001186;28;20086;-78
2022/03/27 02:36:19;;;;;;;39.85;23.52;;;;;;;;;;5001451;28;20072;-77
2022/03/27 02:38:45;;;;;;;37.83;22.10;;;;;;;;;;5027730;28;20041;-77
2022/03/27 02:41:11;;;;;;;33.88;21.58;;;;;;;;;;5019743;28;20052;-77
2022/03/27 02:43:38;;;;;;;39.15;22.00;;;;;;;;;;5016604;28;20339;-77
2022/03/27 02:46:04;;;;;;;37.80;21.52;;;;;;;;;;5000103;28;20045;-76
2022/03/27 02:48:30;;;;;;;40.78;22.88;;;;;;;;;;5000679;28;20057;-77
2022/03/27 02:50:56;;;;;;;39.25;22.40;;;;;;;;;;5001387;28;20034;-80
2022/03/27 02:53:22;;;;;;;38.85;21.88;;;;;;;;;;5034523;28;20041;-79
2022/03/27 02:55:48;;;;;;;45.10;25.05;;;;;;;;;;5001190;28;20050;-79
2022/03/27 02:58:15;;;;;;;43.63;24.65;;;;;;;;;;5018156;28;20036;-81
2022/03/27 03:00:41;;;;;;;45.45;24.73;;;;;;;;;;5020448;28;20057;-79
2022/03/27 03:03:07;;;;;;;40.70;24.10;;;;;;;;;;5034544;28;20084;-81
2022/03/27 03:05:34;;;;;;;43.08;24.52;;;;;;;;;;5001691;28;20381;-81
2022/03/27 03:08:00;;;;;;;39.42;23.88;;;;;;;;;;5003015;28;20121;-81
2022/03/27 03:10:26;;;;;;;38.78;22.45;;;;;;;;;;5004537;28;20046;-80
2022/03/27 03:12:52;;;;;;;42.03;23.50;;;;;;;;;;5004077;28;20053;-80
2022/03/27 03:15:18;;;;;;;36.90;21.95;;;;;;;;;;5020696;28;20358;-81
2022/03/27 03:17:45;;;;;;;36.90;22.70;;;;;;;;;;5020176;28;20058;-81
2022/03/27 03:20:11;;;;;;;36.95;20.95;;;;;;;;;;5003674;28;20053;-80
2022/03/27 03:22:40;;;;;;;38.95;20.65;;;;;;;;;;5019967;28;20358;-80
2022/03/27 03:25:06;;;;;;;33.40;20.80;;;;;;;;;;5004673;28;20076;-81
2022/03/27 03:27:32;;;;;;;36.15;20.73;;;;;;;;;;5036495;28;20084;-81
2022/03/27 03:29:59;;;;;;;42.55;21.73;;;;;;;;;;5003698;28;20053;-81
2022/03/27 03:32:26;;;;;;;32.53;19.55;;;;;;;;;;5020965;28;20054;-81
2022/03/27 03:34:52;;;;;;;31.52;20.40;;;;;;;;;;5020191;28;20077;-81
2022/03/27 03:37:18;;;;;;;32.03;19.27;;;;;;;;;;5020673;28;20049;-81
2022/03/27 03:39:45;;;;;;;31.58;18.77;;;;;;;;;;5036682;28;20038;-81
2022/03/27 03:42:11;;;;;;;34.40;19.33;;;;;;;;;;5019669;28;20045;-81
2022/03/27 03:44:37;;;;;;;33.17;19.33;;;;;;;;;;5019776;28;20034;-81
2022/03/27 03:47:04;;;;;;;30.58;17.20;;;;;;;;;;5019791;28;20048;-80
2022/03/27 03:49:30;;;;;;;29.25;18.75;;;;;;;;;;5019814;28;20242;-80
2022/03/27 03:51:56;;;;;;;29.98;18.33;;;;;;;;;;5019688;28;20398;-81
2022/03/27 03:54:22;;;;;;;27.52;18.65;;;;;;;;;;5021958;28;20038;-79
2022/03/27 03:56:48;;;;;;;32.50;19.00;;;;;;;;;;5007800;28;20070;-81
2022/03/27 03:59:14;;;;;;;33.50;18.52;;;;;;;;;;5003822;28;20458;-80
2022/03/27 04:01:40;;;;;;;30.35;17.77;;;;;;;;;;5018058;28;20104;-77
2022/03/27 04:04:06;;;;;;;27.60;17.63;;;;;;;;;;5025092;28;20062;-78
2022/03/27 04:06:33;;;;;;;29.17;16.80;;;;;;;;;;5044358;28;20088;-78
2022/03/27 04:08:59;;;;;;;29.42;17.40;;;;;;;;;;5025069;28;20128;-78
2022/03/27 04:11:25;;;;;;;29.05;17.10;;;;;;;;;;5017393;28;20091;-78
2022/03/27 04:13:51;;;;;;;31.80;17.50;;;;;;;;;;5032055;28;20116;-78
2022/03/27 04:16:17;;;;;;;28.33;16.70;;;;;;;;;;5000651;28;20080;-80
2022/03/27 04:18:43;;;;;;;37.63;19.23;;;;;;;;;;5018790;28;20044;-79
2022/03/27 04:21:09;;;;;;;32.20;17.13;;;;;;;;;;5018354;28;20473;-79
2022/03/27 04:23:36;;;;;;;32.70;18.13;;;;;;;;;;5001956;28;20072;-79
2022/03/27 04:26:03;;;;;;;28.15;17.13;;;;;;;;;;5034086;28;20034;-79
2022/03/27 04:28:29;;;;;;;28.00;18.17;;;;;;;;;;5018654;28;20466;-79
2022/03/27 04:30:55;;;;;;;29.85;18.10;;;;;;;;;;5001640;28;20061;-80
2022/03/27 04:33:21;;;;;;;30.48;18.52;;;;;;;;;;5001961;28;20052;-80
2022/03/27 04:35:47;;;;;;;30.77;18.23;;;;;;;;;;5002479;28;20038;-78
2022/03/27 04:38:14;;;;;;;27.42;17.25;;;;;;;;;;5017208;28;20068;-77
2022/03/27 04:40:40;;;;;;;30.98;17.25;;;;;;;;;;4999878;28;20573;-78
2022/03/27 04:43:06;;;;;;;28.38;16.52;;;;;;;;;;5019469;28;20038;-78
2022/03/27 04:45:32;;;;;;;27.13;17.50;;;;;;;;;;5001017;28;20045;-77
2022/03/27 04:47:58;;;;;;;27.95;17.40;;;;;;;;;;4998308;28;20488;-77
2022/03/27 04:50:24;;;;;;;32.42;18.42;;;;;;;;;;5015877;28;20096;-81
2022/03/27 04:52:50;;;;;;;30.58;18.20;;;;;;;;;;5002554;28;20080;-80
2022/03/27 04:55:16;;;;;;;34.85;19.17;;;;;;;;;;5017754;28;20069;-78
2022/03/27 04:57:43;;;;;;;30.55;19.33;;;;;;;;;;5018400;28;20038;-78
2022/03/27 05:00:10;;;;;;;36.97;20.58;;;;;;;;;;5002273;28;20046;-78
2022/03/27 05:02:40;;;;;;;32.20;19.48;;;;;;;;;;5008028;28;20042;-79
2022/03/27 05:05:07;;;;;;;35.72;20.67;;;;;;;;;;5002087;28;20121;-81
2022/03/27 05:07:34;;;;;;;36.80;19.45;;;;;;;;;;5018030;28;20518;-78
2022/03/27 05:10:00;;;;;;;29.10;18.52;;;;;;;;;;5016310;28;20308;-78
2022/03/27 05:12:26;;;;;;;28.38;18.15;;;;;;;;;;4999035;28;20385;-78
2022/03/27 05:14:52;;;;;;;32.60;19.33;;;;;;;;;;5031941;28;20080;-78
2022/03/27 05:17:18;;;;;;;34.00;20.17;;;;;;;;;;5033145;28;20045;-78
2022/03/27 05:19:44;;;;;;;31.20;19.23;;;;;;;;;;5033280;28;20361;-81
2022/03/27 05:22:10;;;;;;;30.63;19.10;;;;;;;;;;5034819;28;20046;-79
2022/03/27 05:24:36;;;;;;;29.88;18.88;;;;;;;;;;5002206;28;20034;-81
2022/03/27 05:27:02;;;;;;;30.95;18.50;;;;;;;;;;5018178;28;20408;-81
2022/03/27 05:29:28;;;;;;;34.70;18.58;;;;;;;;;;5001491;28;20093;-79
2022/03/27 05:31:55;;;;;;;35.00;18.65;;;;;;;;;;5001298;28;20034;-80
2022/03/27 05:34:21;;;;;;;32.63;18.38;;;;;;;;;;5018036;28;20073;-79
2022/03/27 05:36:47;;;;;;;28.92;18.08;;;;;;;;;;5017861;28;20041;-80
2022/03/27 05:39:13;;;;;;;36.33;19.13;;;;;;;;;;5017693;28;20038;-80
2022/03/27 05:41:39;;;;;;;27.75;18.02;;;;;;;;;;5017139;28;20130;-80
2022/03/27 05:44:05;;;;;;;30.30;18.85;;;;;;;;;;5001100;28;20061;-80
2022/03/27 05:46:31;;;;;;;32.85;19.38;;;;;;;;;;5018300;28;20034;-80
2022/03/27 05:48:57;;;;;;;30.48;19.15;;;;;;;;;;5018930;28;20080;-80
2022/03/27 05:51:23;;;;;;;30.42;19.50;;;;;;;;;;5035198;28;20455;-80
2022/03/27 05:53:49;;;;;;;31.52;20.00;;;;;;;;;;5006154;28;20093;-79
2022/03/27 05:56:16;;;;;;;35.05;20.25;;;;;;;;;;5012185;28;20041;-80
2022/03/27 05:58:42;;;;;;;34.13;20.80;;;;;;;;;;5021486;28;20497;-81
2022/03/27 06:01:08;;;;;;;34.45;21.20;;;;;;;;;;5000925;28;20057;-80
2022/03/27 06:03:34;;;;;;;36.15;22.55;;;;;;;;;;4998350;28;20442;-80
2022/03/27 06:06:00;;;;;;;33.95;21.52;;;;;;;;;;5002920;28;20056;-80
2022/03/27 06:08:26;;;;;;;35.95;22.38;;;;;;;;;;5021467;28;20369;-80
2022/03/27 06:10:52;;;;;;;39.13;23.55;;;;;;;;;;5002660;28;20068;-81
2022/03/27 06:13:19;;;;;;;39.05;24.75;;;;;;;;;;5002984;28;20449;-80
2022/03/27 06:15:46;;;;;;;38.67;23.73;;;;;;;;;;5021879;28;20124;-80
2022/03/27 06:18:12;;;;;;;41.88;22.85;;;;;;;;;;5006202;28;20037;-81
2022/03/27 06:20:38;;;;;;;34.03;21.92;;;;;;;;;;5021832;28;20041;-80
2022/03/27 06:23:06;;;;;;;39.20;24.23;;;;;;;;;;5020954;28;20034;-76
2022/03/27 06:25:32;;;;;;;36.08;22.98;;;;;;;;;;5017204;28;20049;-76
2022/03/27 06:27:58;;;;;;;50.75;30.23;;;;;;;;;;5001249;28;20042;-77
2022/03/27 06:30:26;;;;;;;47.10;30.95;;;;;;;;;;5001273;28;20058;-76
2022/03/27 06:32:52;;;;;;;53.97;32.70;;;;;;;;;;5001457;28;20042;-80
2022/03/27 06:35:19;;;;;;;52.05;33.92;;;;;;;;;;5016981;28;20113;-77
2022/03/27 06:37:45;;;;;;;51.88;34.63;;;;;;;;;;5033561;28;20034;-77
2022/03/27 06:40:12;;;;;;;59.97;37.65;;;;;;;;;;5020721;28;20057;-81
2022/03/27 06:42:38;;;;;;;65.22;37.53;;;;;;;;;;5007629;28;20048;-80
2022/03/27 06:45:10;;;;;;;64.72;40.17;;;;;;;;;;5012308;28;20061;-80
2022/03/27 06:47:36;;;;;;;64.95;41.08;;;;;;;;;;5026631;28;20041;-80
2022/03/27 06:50:03;;;;;;;65.25;41.13;;;;;;;;;;5025350;28;20045;-78
2022/03/27 06:52:29;;;;;;;65.72;39.97;;;;;;;;;;5008244;28;20060;-80
2022/03/27 06:54:55;;;;;;;66.03;39.22;;;;;;;;;;5023608;28;20042;-80
2022/03/27 06:57:21;;;;;;;66.10;41.08;;;;;;;;;;5007446;28;20041;-80
2022/03/27 07:05:17;;;;;;;68.32;43.08;;;;;;;;;;5024185;28;20049;-79
2022/03/27 07:07:43;;;;;;;71.38;43.00;;;;;;;;;;5022250;28;20053;-79
2022/03/27 07:10:10;;;;;;;64.68;42.90;;;;;;;;;;5032030;28;20018;-79
2022/03/27 07:12:36;;;;;;;74.32;44.03;;;;;;;;;;5019048;28;20077;-79
2022/03/27 07:15:02;;;;;;;71.60;44.83;;;;;;;;;;5035193;28;20046;-79
2022/03/27 07:17:28;;;;;;;72.80;45.28;;;;;;;;;;5050883;28;20034;-79
2022/03/27 07:19:54;;;;;;;77.43;46.05;;;;;;;;;;5006631;28;20038;-79
2022/03/27 07:22:20;;;;;;;78.60;47.20;;;;;;;;;;5001385;28;20121;-79
2022/03/27 07:24:46;;;;;;;76.30;45.72;;;;;;;;;;5001414;28;20137;-79
2022/03/27 07:27:12;;;;;;;72.93;45.67;;;;;;;;;;5004996;28;20038;-78
2022/03/27 07:29:38;;;;;;;78.38;46.28;;;;;;;;;;5026583;28;20054;-79
2022/03/27 07:32:05;;;;;;;74.57;45.38;;;;;;;;;;5010881;28;20066;-79
2022/03/27 07:34:31;;;;;;;78.53;45.78;;;;;;;;;;5006415;28;20365;-79
2022/03/27 07:36:57;;;;;;;84.13;43.47;;;;;;;;;;5022403;28;20496;-80
2022/03/27 07:39:23;;;;;;;74.68;43.55;;;;;;;;;;5014141;28;20133;-81
2022/03/27 07:41:49;;;;;;;75.28;43.65;;;;;;;;;;5022112;28;20048;-80
2022/03/27 07:44:15;;;;;;;71.95;43.25;;;;;;;;;;5038343;28;20353;-80
2022/03/27 07:46:41;;;;;;;71.32;43.35;;;;;;;;;;5021600;28;20041;-80
2022/03/27 07:49:08;;;;;;;74.07;43.33;;;;;;;;;;5022840;28;20040;-81
2022/03/27 07:51:34;;;;;;;64.65;42.72;;;;;;;;;;5005571;28;20762;-80
2022/03/27 07:54:00;;;;;;;72.90;42.38;;;;;;;;;;5022540;28;20042;-81
2022/03/27 07:56:26;;;;;;;66.88;43.80;;;;;;;;;;5005553;28;20054;-79
2022/03/27 07:58:52;;;;;;;69.43;41.47;;;;;;;;;;5021664;28;20117;-80
2022/03/27 08:01:18;;;;;;;66.75;42.05;;;;;;;;;;5005539;28;20062;-80
2022/03/27 08:03:44;;;;;;;70.47;42.20;;;;;;;;;;5004365;28;20038;-78
2022/03/27 08:06:10;;;;;;;68.13;41.03;;;;;;;;;;5017849;28;20046;-78
2022/03/27 08:08:36;;;;;;;65.90;40.20;;;;;;;;;;5000481;28;20042;-77
2022/03/27 08:11:02;;;;;;;63.63;41.45;;;;;;;;;;5000214;28;20103;-77
2022/03/27 08:13:29;;;;;;;65.55;39.75;;;;;;;;;;5017380;28;20041;-77
2022/03/27 08:15:55;;;;;;;60.83;40.03;;;;;;;;;;5000033;28;20034;-79
2022/03/27 08:18:21;;;;;;;61.85;39.67;;;;;;;;;;5016682;28;20057;-77
2022/03/27 08:20:47;;;;;;;63.38;38.80;;;;;;;;;;5016922;28;20072;-78
2022/03/27 08:23:13;;;;;;;61.95;38.72;;;;;;;;;;4999794;28;20049;-78
2022/03/27 08:28:23;;;;;;;58.35;37.75;;;;;;;;;;5017348;28;20136;-78
2022/03/27 08:30:49;;;;;;;62.13;39.85;;;;;;;;;;5017075;28;20127;-78
2022/03/27 08:33:15;;;;;;;59.85;38.92;;;;;;;;;;5015515;28;20497;-78
2022/03/27 08:35:42;;;;;;;63.33;39.13;;;;;;;;;;5000233;28;20150;-78
2022/03/27 08:38:11;;;;;;;59.47;36.97;;;;;;;;;;5000734;28;20104;-79
2022/03/27 08:40:40;;;;;;;60.05;36.60;;;;;;;;;;5019070;28;20767;-81
2022/03/27 08:43:08;;;;;;;58.22;36.33;;;;;;;;;;5001358;28;20369;-79
2022/03/27 08:45:34;;;;;;;59.75;37.17;;;;;;;;;;5017532;28;20038;-79
2022/03/27 08:48:00;;;;;;;55.97;37.25;;;;;;;;;;5000462;28;20104;-78
2022/03/27 08:50:32;;;;;;;54.55;36.45;;;;;;;;;;5018004;28;20044;-78
2022/03/27 08:52:58;;;;;;;62.90;37.90;;;;;;;;;;5016420;28;20046;-79
2022/03/27 08:55:29;;;;;;;54.20;35.88;;;;;;;;;;5033185;28;20060;-78
2022/03/27 08:57:56;;;;;;;55.67;35.67;;;;;;;;;;5016560;28;20073;-80
2022/03/27 09:00:23;;;;;;;57.28;35.78;;;;;;;;;;5016752;28;20038;-79
2022/03/27 09:02:49;;;;;;;53.72;35.20;;;;;;;;;;5016802;28;20038;-78
2022/03/27 09:05:15;;;;;;;55.33;33.58;;;;;;;;;;5015923;28;20033;-78
2022/03/27 09:07:41;;;;;;;55.20;33.63;;;;;;;;;;5000023;28;20053;-78
2022/03/27 09:10:10;;;;;;;45.83;31.45;;;;;;;;;;5020537;28;20038;-78
2022/03/27 09:12:36;;;;;;;35.03;25.05;;;;;;;;;;5017487;28;20053;-79
2022/03/27 09:15:07;;;;;;;46.22;30.90;;;;;;;;;;5029401;28;20045;-78
2022/03/27 09:17:33;;;;;;;45.20;30.63;;;;;;;;;;5003152;28;20067;-78
2022/03/27 09:19:59;;;;;;;46.42;31.00;;;;;;;;;;5020990;28;20442;-78
2022/03/27 09:22:33;;;;;;;37.88;26.15;;;;;;;;;;5041990;28;20129;-78
2022/03/27 09:25:02;;;;;;;35.92;24.83;;;;;;;;;;5023733;28;20039;-77
2022/03/27 09:27:30;;;;;;;39.35;26.95;;;;;;;;;;5004054;28;20070;-78
2022/03/27 09:29:58;;;;;;;39.60;27.17;;;;;;;;;;5031551;28;20054;-78
2022/03/27 09:32:27;;;;;;;41.38;27.60;;;;;;;;;;5031263;28;20073;-78
2022/03/27 09:35:01;;;;;;;37.83;25.35;;;;;;;;;;5000987;28;20064;-78
2022/03/27 09:37:31;;;;;;;35.17;22.55;;;;;;;;;;4998437;28;20038;-78
2022/03/27 09:39:57;;;;;;;31.70;22.08;;;;;;;;;;5016079;28;20041;-78
2022/03/27 09:42:24;;;;;;;32.30;21.13;;;;;;;;;;5001753;28;20068;-78
2022/03/27 09:44:50;;;;;;;31.40;21.25;;;;;;;;;;5019256;28;20088;-77
2022/03/27 09:47:16;;;;;;;31.92;21.23;;;;;;;;;;5019388;28;20038;-78
2022/03/27 09:49:49;;;;;;;27.45;20.00;;;;;;;;;;5002357;28;20038;-78
2022/03/27 09:52:15;;;;;;;30.77;21.35;;;;;;;;;;5002859;28;20030;-78
2022/03/27 09:54:53;;;;;;;31.80;23.80;;;;;;;;;;5002285;28;20373;-78
2022/03/27 09:57:19;;;;;;;34.22;23.45;;;;;;;;;;5035749;28;20050;-78
2022/03/27 09:59:47;;;;;;;34.92;23.55;;;;;;;;;;5035904;28;20129;-78
2022/03/27 10:02:21;;;;;;;28.13;21.33;;;;;;;;;;5035069;28;20131;-78
2022/03/27 10:04:56;;;;;;;31.63;21.77;;;;;;;;;;5018450;28;20034;-78
2022/03/27 10:07:25;;;;;;;31.70;22.20;;;;;;;;;;5034783;28;20438;-78
2022/03/27 10:09:52;;;;;;;29.85;21.77;;;;;;;;;;5002447;28;20042;-78
2022/03/27 10:12:21;;;;;;;30.75;22.63;;;;;;;;;;4986797;28;20046;-78
2022/03/27 10:14:47;;;;;;;32.75;21.95;;;;;;;;;;5002065;28;20057;-78
2022/03/27 10:17:13;;;;;;;30.05;22.20;;;;;;;;;;5018160;28;20046;-78
2022/03/27 10:19:40;;;;;;;33.58;22.17;;;;;;;;;;5017643;28;20076;-78
2022/03/27 10:22:06;;;;;;;31.98;21.50;;;;;;;;;;5002678;28;20109;-78
2022/03/27 10:24:32;;;;;;;46.05;31.73;;;;;;;;;;5035179;28;20129;-79
2022/03/27 10:27:02;;;;;;;29.00;20.77;;;;;;;;;;5019068;28;20071;-78
2022/03/27 10:29:28;;;;;;;28.65;19.80;;;;;;;;;;5004241;28;20485;-79
2022/03/27 10:31:54;;;;;;;29.40;21.15;;;;;;;;;;5024381;28;20117;-77
2022/03/27 10:34:20;;;;;;;30.17;20.67;;;;;;;;;;5034948;28;20480;-78
2022/03/27 10:36:52;;;;;;;27.52;18.98;;;;;;;;;;5018447;28;20050;-77
2022/03/27 10:39:25;;;;;;;28.02;19.63;;;;;;;;;;5019080;28;20049;-78
2022/03/27 10:42:11;;;;;;;26.05;19.27;;;;;;;;;;5002256;28;20369;-78
2022/03/27 10:44:48;;;;;;;28.50;20.13;;;;;;;;;;5019590;28;20038;-78
2022/03/27 10:47:17;;;;;;;32.20;20.75;;;;;;;;;;5001885;28;20042;-78
2022/03/27 10:50:08;;;;;;;110.40;75.05;;;;;;;;;;5035172;28;20045;-78
2022/03/27 10:52:34;;;;;;;26.90;20.23;;;;;;;;;;5038540;28;20068;-77
2022/03/27 10:55:01;;;;;;;29.92;19.15;;;;;;;;;;5040156;28;20449;-77
2022/03/27 10:57:28;;;;;;;29.63;19.65;;;;;;;;;;5038609;28;20042;-78
2022/03/27 10:59:54;;;;;;;29.85;19.73;;;;;;;;;;5019344;28;20096;-78
2022/03/27 11:02:40;;;;;;;26.70;20.00;;;;;;;;;;5018572;28;20038;-77
2022/03/27 11:05:06;;;;;;;28.55;20.80;;;;;;;;;;5034850;28;20042;-78
2022/03/27 11:07:32;;;;;;;26.40;19.70;;;;;;;;;;5001417;28;20042;-79
2022/03/27 11:09:58;;;;;;;27.17;19.58;;;;;;;;;;5019027;28;20060;-78
2022/03/27 11:12:24;;;;;;;28.60;19.90;;;;;;;;;;5018711;28;20038;-78
2022/03/27 11:14:53;;;;;;;32.95;21.52;;;;;;;;;;5035125;28;20073;-79
2022/03/27 11:17:40;;;;;;;27.80;19.13;;;;;;;;;;5021009;28;20167;-78
2022/03/27 11:20:26;;;;;;;26.92;18.45;;;;;;;;;;5019305;28;20319;-79
2022/03/27 11:22:56;;;;;;;29.02;18.48;;;;;;;;;;5020663;28;20426;-79
2022/03/27 11:25:33;;;;;;;26.92;18.90;;;;;;;;;;5019567;28;20132;-78
2022/03/27 11:28:02;;;;;;;50.78;28.13;;;;;;;;;;5002707;28;20042;-78
2022/03/27 11:30:28;;;;;;;28.05;19.10;;;;;;;;;;5019606;28;20140;-78
2022/03/27 11:33:13;;;;;;;31.00;18.55;;;;;;;;;;5003374;28;20073;-79
2022/03/27 11:35:43;;;;;;;27.20;18.95;;;;;;;;;;5020693;28;20042;-78
2022/03/27 11:38:19;;;;;;;26.95;19.00;;;;;;;;;;5020237;28;20045;-77
2022/03/27 11:40:45;;;;;;;31.20;20.27;;;;;;;;;;5032752;28;20053;-77
2022/03/27 11:43:27;;;;;;;48.03;22.70;;;;;;;;;;5017061;28;20416;-78
2022/03/27 11:45:55;;;;;;;36.72;21.13;;;;;;;;;;5018609;28;20053;-78
2022/03/27 11:48:21;;;;;;;30.42;20.88;;;;;;;;;;5000271;28;20139;-77
2022/03/27 11:50:47;;;;;;;29.52;20.90;;;;;;;;;;4999764;28;20038;-77
2022/03/27 11:53:13;;;;;;;29.13;19.90;;;;;;;;;;5032903;28;20128;-79
2022/03/27 11:55:39;;;;;;;31.13;20.88;;;;;;;;;;4999180;28;20049;-76
2022/03/27 11:58:07;;;;;;;31.27;21.60;;;;;;;;;;4998769;28;20053;-75
2022/03/27 12:00:36;;;;;;;29.48;20.17;;;;;;;;;;5015686;28;20069;-76
2022/03/27 12:03:03;;;;;;;28.92;19.88;;;;;;;;;;5016024;28;20048;-76
2022/03/27 12:05:33;;;;;;;29.30;20.17;;;;;;;;;;5015678;28;20042;-76
2022/03/27 12:07:59;;;;;;;30.67;21.00;;;;;;;;;;5015088;28;20057;-76
2022/03/27 12:10:26;;;;;;;29.05;19.90;;;;;;;;;;5016065;28;20042;-76
2022/03/27 12:12:56;;;;;;;29.33;19.88;;;;;;;;;;4999023;28;20088;-78
2022/03/27 12:15:22;;;;;;;30.00;19.83;;;;;;;;;;5015269;28;20128;-76
2022/03/27 12:17:48;;;;;;;31.17;20.40;;;;;;;;;;5015037;28;20037;-76
2022/03/27 12:20:15;;;;;;;28.98;19.40;;;;;;;;;;5018173;28;20034;-76
2022/03/27 12:22:41;;;;;;;28.67;19.73;;;;;;;;;;5034666;28;20041;-76
2022/03/27 12:25:10;;;;;;;30.23;19.77;;;;;;;;;;5032601;28;20366;-75
2022/03/27 12:30:32;;;;;;;30.67;21.08;;;;;;;;;;5016567;28;20124;-76
2022/03/27 12:32:58;;;;;;;27.90;19.98;;;;;;;;;;4998587;28;20162;-77
2022/03/27 12:35:24;;;;;;;26.60;19.42;;;;;;;;;;5014913;28;20066;-77
2022/03/27 12:37:50;;;;;;;30.92;20.25;;;;;;;;;;5014918;28;20449;-77
2022/03/27 12:40:16;;;;;;;34.97;21.15;;;;;;;;;;4998041;28;20033;-75
2022/03/27 12:42:43;;;;;;;29.05;20.77;;;;;;;;;;5015090;28;20356;-77
2022/03/27 12:45:42;;;;;;;31.08;21.08;;;;;;;;;;5014615;28;20042;-75
2022/03/27 12:48:21;;;;;;;29.98;20.65;;;;;;;;;;5015180;28;20318;-77
2022/03/27 12:50:54;;;;;;;32.53;21.30;;;;;;;;;;5030849;28;20046;-77
2022/03/27 12:53:20;;;;;;;31.77;20.65;;;;;;;;;;5016988;28;20042;-78
2022/03/27 12:55:56;;;;;;;30.30;21.55;;;;;;;;;;5035519;28;20093;-77
2022/03/27 12:58:42;;;;;;;31.13;21.10;;;;;;;;;;5017278;28;20113;-77
2022/03/27 13:01:13;;;;;;;32.63;22.10;;;;;;;;;;5023145;28;20038;-77
2022/03/27 13:03:40;;;;;;;31.35;20.77;;;;;;;;;;5017104;28;20034;-76
2022/03/27 13:06:09;;;;;;;30.10;19.75;;;;;;;;;;5016815;28;20096;-77
2022/03/27 13:08:35;;;;;;;26.27;18.45;;;;;;;;;;5032110;28;20026;-76
2022/03/27 13:11:02;;;;;;;25.52;17.45;;;;;;;;;;5027137;28;20046;-77
2022/03/27 13:13:58;;;;;;;24.70;15.75;;;;;;;;;;5000757;28;20056;-77
2022/03/27 13:16:28;;;;;;;21.58;15.10;;;;;;;;;;5018713;28;20100;-77
2022/03/27 13:19:00;;;;;;;22.25;15.68;;;;;;;;;;5003770;28;20048;-77
2022/03/27 13:21:30;;;;;;;20.48;14.98;;;;;;;;;;5036265;28;20052;-77
2022/03/27 13:23:57;;;;;;;20.73;14.82;;;;;;;;;;5003369;28;20038;-77
2022/03/27 13:26:23;;;;;;;18.85;13.50;;;;;;;;;;5036353;28;20121;-77
2022/03/27 13:28:49;;;;;;;18.70;12.48;;;;;;;;;;5037768;28;20042;-77
2022/03/27 13:31:15;;;;;;;18.92;12.57;;;;;;;;;;5022399;28;20045;-77
2022/03/27 13:33:41;;;;;;;22.00;14.93;;;;;;;;;;5003457;28;20054;-77
2022/03/27 13:36:07;;;;;;;21.20;14.10;;;;;;;;;;5003129;28;20042;-77
2022/03/27 13:38:33;;;;;;;19.08;14.57;;;;;;;;;;5019896;28;20038;-77
2022/03/27 13:43:44;;;;;;;19.48;13.90;;;;;;;;;;5020466;28;20147;-77
2022/03/27 13:46:10;;;;;;;17.60;14.07;;;;;;;;;;5021254;28;20457;-77
2022/03/27 13:48:36;;;;;;;16.23;12.50;;;;;;;;;;5022475;28;20120;-80
2022/03/27 13:51:03;;;;;;;18.90;12.85;;;;;;;;;;5023479;28;20037;-80
2022/03/27 13:53:29;;;;;;;20.05;13.27;;;;;;;;;;5026684;28;20310;-80
2022/03/27 13:55:55;;;;;;;14.73;11.32;;;;;;;;;;5026881;28;20038;-79
2022/03/27 13:58:21;;;;;;;14.32;11.13;;;;;;;;;;5043772;28;20068;-79
2022/03/27 14:00:47;;;;;;;14.73;10.45;;;;;;;;;;5012218;28;20038;-78
2022/03/27 14:03:13;;;;;;;15.70;11.20;;;;;;;;;;5025713;28;20226;-78
2022/03/27 14:05:39;;;;;;;14.43;11.60;;;;;;;;;;5026081;28;20148;-77
2022/03/27 14:08:05;;;;;;;15.20;11.57;;;;;;;;;;5009661;28;20086;-79
2022/03/27 14:10:32;;;;;;;13.30;10.82;;;;;;;;;;5024289;28;20073;-79
2022/03/27 14:12:58;;;;;;;13.32;10.50;;;;;;;;;;5006829;28;20085;-79
2022/03/27 14:15:24;;;;;;;16.95;11.10;;;;;;;;;;5025936;28;20064;-78
2022/03/27 14:17:51;;;;;;;15.85;11.40;;;;;;;;;;5023276;28;20046;-78
2022/03/27 14:20:17;;;;;;;14.63;11.27;;;;;;;;;;5024349;28;20112;-78
2022/03/27 14:22:43;;;;;;;14.52;11.27;;;;;;;;;;5022635;28;20096;-78
2022/03/27 14:25:13;;;;;;;14.25;10.77;;;;;;;;;;5023228;28;20038;-77
2022/03/27 14:27:40;;;;;;;14.15;10.40;;;;;;;;;;5022694;28;20417;-78
2022/03/27 14:30:08;;;;;;;14.93;11.60;;;;;;;;;;5007303;28;20114;-78
2022/03/27 14:32:34;;;;;;;16.02;11.02;;;;;;;;;;5007489;28;20042;-78